Time;durP1;ratioP1;P1;durP2;ratioP2;P2;SDS_P1;SDS_P2;PMS_P1;PMS_P2;Temp;Humidity;BMP_temperature;BMP_pressure;BME280_temperature;BME280_humidity;BME280_pressure;Samples;Min_cycle;Max_cycle;Signal;HPM_P1;HPM_P2
2022/05/04 00:00:11;;;;;;;;;37.75;30.50;;;;;12.74;64.05;100990.50;4955223;28;45373;-65
2022/05/04 00:02:37;;;;;;;;;32.50;30.50;;;;;12.77;64.06;100992.19;4955435;28;46344;-63
2022/05/04 00:05:04;;;;;;;;;32.50;29.50;;;;;12.66;64.79;100976.78;4956605;28;45386;-64
2022/05/04 00:07:30;;;;;;;;;30.50;29.25;;;;;12.67;64.27;100976.69;4961199;28;45361;-65
2022/05/04 00:09:58;;;;;;;;;41.00;33.25;;;;;12.67;64.86;100984.63;4959184;28;45623;-64
2022/05/04 00:12:25;;;;;;;;;35.50;32.00;;;;;12.59;64.45;100975.31;4956945;28;47116;-64
2022/05/04 00:14:50;;;;;;;;;36.00;32.50;;;;;12.62;64.50;100978.69;4957468;28;45326;-63
2022/05/04 00:17:15;;;;;;;;;28.75;28.25;;;;;12.59;64.86;100988.53;4957787;28;45268;-64
2022/05/04 00:19:41;;;;;;;;;38.00;31.25;;;;;12.64;64.13;100981.28;4956345;28;45215;-66
2022/05/04 00:22:06;;;;;;;;;35.25;32.25;;;;;12.67;64.75;100981.97;4954157;28;47835;-62
2022/05/04 00:24:32;;;;;;;;;36.50;33.00;;;;;12.63;64.79;100972.47;4955957;28;45367;-64
2022/05/04 00:26:59;;;;;;;;;40.75;32.50;;;;;12.55;64.86;100964.03;4957799;28;45262;-64
2022/05/04 00:29:24;;;;;;;;;46.25;34.00;;;;;12.49;65.93;100965.16;4956663;28;45421;-62
2022/05/04 00:31:49;;;;;;;;;35.50;32.25;;;;;12.42;65.08;100966.34;4955729;28;45261;-63
2022/05/04 00:34:15;;;;;;;;;35.75;32.00;;;;;12.41;65.41;100964.63;4955350;28;45360;-63
2022/05/04 00:36:40;;;;;;;;;42.25;33.50;;;;;12.36;65.61;100961.31;4940938;28;45280;-61
2022/05/04 00:39:05;;;;;;;;;37.50;31.50;;;;;12.30;66.05;100962.44;4959166;28;45283;-64
2022/05/04 00:41:31;;;;;;;;;37.50;31.75;;;;;12.27;65.64;100967.81;4956768;28;46132;-64
2022/05/04 00:43:56;;;;;;;;;32.25;30.50;;;;;12.22;66.29;100956.59;4957167;28;45421;-64
2022/05/04 00:46:22;;;;;;;;;41.25;32.75;;;;;12.25;66.26;100956.47;4960334;28;45343;-65
2022/05/04 00:48:48;;;;;;;;;36.00;30.50;;;;;12.24;65.58;100953.00;4955963;28;45360;-64
2022/05/04 00:51:13;;;;;;;;;35.25;31.00;;;;;12.20;65.64;100951.41;4955211;28;45506;-62
2022/05/04 00:53:42;;;;;;;;;37.50;33.25;;;;;12.16;66.02;100946.31;4955243;28;45388;-64
2022/05/04 00:56:09;;;;;;;;;41.75;32.50;;;;;12.12;66.58;100949.06;4955311;28;45349;-63
2022/05/04 00:58:54;;;;;;;;;35.50;30.50;;;;;12.09;66.47;100954.47;4955718;28;45477;-63
2022/05/04 01:01:30;;;;;;;;;35.00;31.25;;;;;12.08;66.38;100965.06;4955018;28;46121;-61
2022/05/04 01:03:57;;;;;;;;;37.25;31.75;;;;;12.08;66.03;100965.94;4937645;28;45334;-61
2022/05/04 01:06:24;;;;;;;;;35.75;32.25;;;;;12.15;65.48;100968.34;4955378;28;45309;-61
2022/05/04 01:08:50;;;;;;;;;34.25;30.25;;;;;11.96;65.32;100940.88;4955770;28;45484;-60
2022/05/04 01:11:17;;;;;;;;;37.00;31.25;;;;;12.18;65.22;100962.94;4956846;28;46225;-61
2022/05/04 01:13:43;;;;;;;;;36.75;31.00;;;;;12.10;65.73;100960.59;4958615;28;45315;-62
2022/05/04 01:16:08;;;;;;;;;39.75;32.50;;;;;12.07;65.73;100966.88;4960277;28;45330;-62
2022/05/04 01:18:34;;;;;;;;;34.25;31.00;;;;;12.06;66.00;100966.91;4964672;28;45211;-63
2022/05/04 01:20:59;;;;;;;;;35.75;31.75;;;;;11.99;66.06;100958.38;4965748;28;45522;-62
2022/05/04 01:23:27;;;;;;;;;41.75;34.25;;;;;11.91;65.82;100950.75;4959005;28;45459;-61
2022/05/04 01:25:53;;;;;;;;;40.50;33.75;;;;;11.94;65.82;100963.81;4958370;28;45416;-62
2022/05/04 01:28:19;;;;;;;;;45.25;34.25;;;;;11.91;66.48;100971.00;4958328;28;45406;-62
2022/05/04 01:30:44;;;;;;;;;32.75;31.25;;;;;11.87;66.27;100979.94;4958305;28;46666;-62
2022/05/04 01:33:10;;;;;;;;;41.00;33.75;;;;;11.81;66.33;100981.03;4960207;28;45228;-62
2022/05/04 01:35:35;;;;;;;;;37.75;33.00;;;;;11.80;67.02;100979.31;4958537;28;45330;-62
2022/05/04 01:38:00;;;;;;;;;39.75;33.00;;;;;11.79;66.65;100977.59;4959169;28;45639;-62
2022/05/04 01:40:26;;;;;;;;;37.50;31.75;;;;;11.77;66.56;100982.06;4958850;28;46158;-62
2022/05/04 01:42:51;;;;;;;;;41.75;33.25;;;;;11.74;66.79;100972.53;4966421;28;45329;-61
2022/05/04 01:45:17;;;;;;;;;45.00;36.25;;;;;11.72;67.06;100979.63;4963577;28;45287;-60
2022/05/04 01:47:48;;;;;;;;;36.00;32.75;;;;;11.74;67.11;100982.19;4956921;28;45478;-61
2022/05/04 01:50:13;;;;;;;;;46.25;34.75;;;;;11.74;66.96;100969.03;4957898;28;47382;-63
2022/05/04 01:52:39;;;;;;;;;38.75;33.50;;;;;11.82;66.78;100973.09;4957800;28;45460;-61
2022/05/04 01:55:06;;;;;;;;;34.00;31.25;;;;;11.83;67.27;100969.53;4958213;28;45324;-62
2022/05/04 01:57:32;;;;;;;;;40.00;33.00;;;;;11.83;66.95;100972.16;4959755;28;45843;-62
2022/05/04 01:59:57;;;;;;;;;34.00;30.75;;;;;11.73;66.53;100946.22;4959033;28;46298;-62
2022/05/04 02:02:23;;;;;;;;;33.25;30.50;;;;;11.90;66.89;100964.00;4958779;28;45381;-64
2022/05/04 02:04:49;;;;;;;;;32.75;31.25;;;;;11.93;66.94;100979.72;4958352;28;45195;-61
2022/05/04 02:07:14;;;;;;;;;37.00;32.25;;;;;11.93;66.70;100977.06;4958000;28;45523;-63
2022/05/04 02:09:43;;;;;;;;;35.75;33.00;;;;;11.88;66.88;100974.59;4958221;28;45636;-62
2022/05/04 02:12:08;;;;;;;;;38.75;32.25;;;;;11.92;66.57;100978.00;4957756;28;45268;-62
2022/05/04 02:14:34;;;;;;;;;44.50;35.00;;;;;11.88;66.05;100969.34;4957653;28;45323;-61
2022/05/04 02:16:59;;;;;;;;;34.50;30.75;;;;;11.97;66.56;100976.03;4957779;28;45184;-61
2022/05/04 02:19:25;;;;;;;;;36.75;32.25;;;;;11.96;66.24;100976.94;4957359;28;45370;-62
2022/05/04 02:21:51;;;;;;;;;38.50;31.50;;;;;11.90;66.59;100969.28;4957172;28;45198;-61
2022/05/04 02:24:16;;;;;;;;;42.00;34.00;;;;;11.92;66.38;100973.56;4956748;28;45809;-62
2022/05/04 02:26:42;;;;;;;;;43.50;33.50;;;;;11.92;66.02;100959.53;4957574;28;45811;-62
2022/05/04 02:29:08;;;;;;;;;41.75;35.75;;;;;11.94;66.58;100968.25;4957317;28;46096;-62
2022/05/04 02:31:33;;;;;;;;;33.75;28.50;;;;;11.95;66.52;100967.31;4957444;28;45224;-61
2022/05/04 02:33:58;;;;;;;;;41.75;34.00;;;;;11.92;66.80;100968.28;4957464;28;45287;-60
2022/05/04 02:39:07;;;;;;;;;44.00;35.50;;;;;11.89;66.57;100960.50;4957047;28;45884;-62
2022/05/04 02:41:33;;;;;;;;;43.00;33.50;;;;;11.88;66.30;100960.59;4958720;28;45264;-63
2022/05/04 02:44:01;;;;;;;;;41.50;33.75;;;;;11.80;66.57;100959.09;4957719;28;45220;-63
2022/05/04 02:46:28;;;;;;;;;38.50;33.00;;;;;11.80;66.40;100968.78;4957720;28;45492;-64
2022/05/04 02:48:54;;;;;;;;;42.25;34.25;;;;;11.80;66.47;100967.00;4956975;28;45505;-62
2022/05/04 02:51:19;;;;;;;;;44.25;36.25;;;;;11.79;66.77;100972.34;4939595;28;45371;-61
2022/05/04 02:53:44;;;;;;;;;43.75;33.50;;;;;11.71;66.82;100962.09;4944901;28;45274;-61
2022/05/04 02:56:11;;;;;;;;;40.00;33.25;;;;;11.66;66.75;100956.13;4966150;28;45347;-63
2022/05/04 02:58:36;;;;;;;;;41.25;33.75;;;;;11.63;66.88;100957.13;4957028;28;46144;-62
2022/05/04 03:04:07;;;;;;;;;40.25;34.25;;;;;11.58;66.87;100950.28;4956638;28;45310;-61
2022/05/04 03:06:34;;;;;;;;;43.25;32.00;;;;;11.58;67.05;100958.19;4956961;28;45428;-62
2022/05/04 03:09:00;;;;;;;;;30.25;29.50;;;;;11.57;67.35;100943.31;4938717;28;47763;-61
2022/05/04 03:14:10;;;;;;;;;41.00;32.75;;;;;11.59;67.49;100952.88;4958330;28;45447;-61
2022/05/04 03:16:36;;;;;;;;;37.50;29.75;;;;;11.56;67.69;100953.00;4942263;28;45353;-64
2022/05/04 03:19:03;;;;;;;;;44.50;34.25;;;;;11.46;68.13;100952.47;4960150;28;46145;-62
2022/05/04 03:21:28;;;;;;;;;48.00;35.00;;;;;11.33;67.32;100933.66;4959103;28;45483;-61
2022/05/04 03:23:54;;;;;;;;;39.00;33.25;;;;;11.38;67.25;100941.38;4957366;28;45290;-62
2022/05/04 03:26:19;;;;;;;;;45.00;32.75;;;;;11.37;67.44;100948.44;4957613;28;45479;-61
2022/05/04 03:28:45;;;;;;;;;43.50;34.25;;;;;11.38;67.34;100934.34;4956819;28;45520;-61
2022/05/04 03:31:11;;;;;;;;;45.75;35.00;;;;;11.27;68.36;100919.84;4957675;28;45315;-62
2022/05/04 03:33:36;;;;;;;;;40.25;34.75;;;;;11.34;67.60;100937.16;4959524;28;45311;-63
2022/05/04 03:36:02;;;;;;;;;31.25;30.75;;;;;11.32;68.02;100950.38;4959760;28;45465;-62
2022/05/04 03:38:27;;;;;;;;;34.50;31.50;;;;;11.29;67.96;100939.09;4957711;28;45536;-62
2022/05/04 03:40:53;;;;;;;;;36.00;32.25;;;;;11.33;67.41;100938.94;4958503;28;45290;-63
2022/05/04 03:43:18;;;;;;;;;34.25;28.50;;;;;11.28;67.65;100930.34;4957280;28;45394;-61
2022/05/04 03:45:43;;;;;;;;;41.25;34.50;;;;;11.28;67.71;100943.53;4957650;28;45256;-63
2022/05/04 03:48:09;;;;;;;;;45.25;34.75;;;;;11.21;67.38;100929.72;4955755;28;48103;-61
2022/05/04 03:50:34;;;;;;;;;41.00;34.00;;;;;11.22;67.99;100935.84;4958347;28;45235;-67
2022/05/04 03:52:59;;;;;;;;;31.50;29.75;;;;;11.14;67.56;100927.38;4957408;28;45533;-62
2022/05/04 03:55:25;;;;;;;;;31.75;29.75;;;;;11.17;68.29;100935.16;4957692;28;45437;-62
2022/05/04 03:57:50;;;;;;;;;37.25;33.00;;;;;11.10;67.79;100931.88;4938892;28;47047;-61
2022/05/04 04:00:16;;;;;;;;;42.00;34.50;;;;;11.14;67.96;100946.66;4938416;28;45424;-62
2022/05/04 04:02:42;;;;;;;;;39.75;33.00;;;;;11.05;68.23;100942.56;4955750;28;45397;-62
2022/05/04 04:05:08;;;;;;;;;41.25;32.25;;;;;11.00;68.37;100941.88;4956224;28;45613;-62
2022/05/04 04:07:33;;;;;;;;;46.75;35.25;;;;;10.96;68.62;100935.88;4955982;28;46185;-62
2022/05/04 04:09:59;;;;;;;;;36.75;31.75;;;;;11.00;68.29;100933.97;4956026;28;45436;-62
2022/05/04 04:12:24;;;;;;;;;29.00;28.50;;;;;11.06;68.32;100939.03;4957255;28;45357;-61
2022/05/04 04:14:50;;;;;;;;;42.50;34.00;;;;;11.02;68.34;100937.41;4955979;28;45347;-62
2022/05/04 04:17:15;;;;;;;;;42.50;34.00;;;;;11.00;68.16;100933.97;4955988;28;45355;-61
2022/05/04 04:19:40;;;;;;;;;37.00;33.25;;;;;10.89;68.62;100923.84;4955546;28;45326;-61
2022/05/04 04:22:05;;;;;;;;;34.75;30.75;;;;;10.93;68.60;100935.13;4955599;28;45602;-61
2022/05/04 04:24:31;;;;;;;;;39.75;32.75;;;;;10.89;69.09;100938.78;4955915;28;45264;-60
2022/05/04 04:26:56;;;;;;;;;39.75;33.75;;;;;10.88;69.11;100945.81;4954661;28;47160;-60
2022/05/04 04:29:21;;;;;;;;;47.75;36.50;;;;;10.86;68.51;100939.75;4959902;28;45586;-62
2022/05/04 04:31:47;;;;;;;;;39.75;34.25;;;;;10.82;68.49;100952.16;4962415;28;45315;-62
2022/05/04 04:34:12;;;;;;;;;40.50;33.50;;;;;10.77;68.94;100954.09;4962786;28;44844;-62
2022/05/04 04:36:38;;;;;;;;;39.00;33.75;;;;;10.69;68.79;100945.59;4940365;28;47093;-62
2022/05/04 04:39:04;;;;;;;;;38.25;33.75;;;;;10.71;69.02;100948.19;4956388;28;45247;-67
2022/05/04 04:41:30;;;;;;;;;41.25;34.25;;;;;10.73;68.76;100946.38;4955826;28;45398;-61
2022/05/04 04:43:55;;;;;;;;;46.25;35.00;;;;;10.73;69.21;100959.53;4955662;28;45612;-61
2022/05/04 04:46:21;;;;;;;;;45.00;36.25;;;;;10.73;68.85;100954.25;4955408;28;45346;-62
2022/05/04 04:48:46;;;;;;;;;45.25;35.25;;;;;10.73;68.94;100951.63;4959732;28;45336;-62
2022/05/04 04:51:12;;;;;;;;;31.75;28.50;;;;;10.68;69.06;100946.53;4960210;28;45247;-62
2022/05/04 04:53:38;;;;;;;;;43.50;33.00;;;;;10.73;69.79;100965.63;4966672;28;45362;-62
2022/05/04 04:56:04;;;;;;;;;35.25;32.50;;;;;10.73;69.74;100965.63;4964563;28;46099;-64
2022/05/04 04:58:30;;;;;;;;;38.50;33.50;;;;;10.70;69.86;100964.91;4961145;28;46497;-64
2022/05/04 05:00:56;;;;;;;;;35.75;29.00;;;;;10.72;69.61;100963.06;4961222;28;45303;-62
2022/05/04 05:03:21;;;;;;;;;40.50;34.75;;;;;10.69;69.43;100961.38;4959161;28;45359;-63
2022/05/04 05:05:47;;;;;;;;;23.50;16.00;;;;;10.68;69.05;100964.94;4958592;28;46501;-63
2022/05/04 05:08:13;;;;;;;;;35.75;33.00;;;;;10.68;69.01;100964.09;4958539;28;45338;-66
2022/05/04 05:10:39;;;;;;;;;43.00;35.50;;;;;10.57;69.07;100949.50;4958081;28;45350;-62
2022/05/04 05:13:05;;;;;;;;;36.00;32.75;;;;;10.63;69.67;100967.75;4958236;28;45382;-63
2022/05/04 05:18:20;;;;;;;;;40.00;33.50;;;;;10.72;69.32;100970.97;4958355;28;45413;-63
2022/05/04 05:20:45;;;;;;;;;36.50;33.00;;;;;10.80;69.05;100975.03;4957876;28;45250;-63
2022/05/04 05:23:11;;;;;;;;;37.75;33.50;;;;;10.91;68.59;100972.03;4958716;28;45211;-62
2022/05/04 05:25:37;;;;;;;;;37.50;30.50;;;;;11.03;68.29;100969.88;4958357;28;46100;-64
2022/05/04 05:28:02;;;;;;;;;37.25;33.50;;;;;11.11;68.07;100973.09;4958865;28;45419;-63
2022/05/04 05:30:28;;;;;;;;;38.75;33.00;;;;;11.20;68.65;100962.22;4958879;28;45307;-63
2022/05/04 05:32:53;;;;;;;;;37.25;33.75;;;;;11.34;67.61;100968.75;4959471;28;45185;-65
2022/05/04 05:35:19;;;;;;;;;38.75;33.25;;;;;11.57;67.12;100974.94;4958432;28;45301;-64
2022/05/04 05:37:44;;;;;;;;;39.25;33.00;;;;;11.72;66.64;100973.50;4958228;28;45314;-64
2022/05/04 05:40:10;;;;;;;;;40.25;34.00;;;;;11.72;66.21;100961.19;4958773;28;45410;-62
2022/05/04 05:42:36;;;;;;;;;43.25;34.25;;;;;11.93;66.06;100977.06;4958824;28;45417;-62
2022/05/04 05:45:02;;;;;;;;;33.75;31.25;;;;;12.06;64.97;100980.09;4957882;28;46245;-64
2022/05/04 05:47:27;;;;;;;;;21.75;21.25;;;;;12.03;64.70;100967.91;4958559;28;45405;-63
2022/05/04 05:49:53;;;;;;;;;37.25;31.00;;;;;12.10;65.37;100976.41;4958619;28;45378;-64
2022/05/04 05:52:19;;;;;;;;;30.50;30.00;;;;;12.20;64.34;100982.19;4958955;28;45238;-63
2022/05/04 05:54:44;;;;;;;;;38.00;33.00;;;;;12.29;64.40;100989.72;4941522;28;47030;-64
2022/05/04 05:57:10;;;;;;;;;36.50;33.25;;;;;12.32;63.97;100989.59;4958613;28;45478;-65
2022/05/04 05:59:35;;;;;;;;;38.75;32.50;;;;;12.32;63.94;100986.97;4958330;28;45325;-62
2022/05/04 06:02:01;;;;;;;;;39.75;31.75;;;;;12.35;63.09;100986.00;4958792;28;45180;-64
2022/05/04 06:04:26;;;;;;;;;38.50;33.00;;;;;12.29;63.43;100981.81;4956895;28;46174;-62
2022/05/04 06:06:53;;;;;;;;;39.75;30.75;;;;;12.34;63.29;100986.91;4963068;28;45385;-61
2022/05/04 06:09:18;;;;;;;;;38.50;33.25;;;;;12.34;63.28;100986.91;4952921;28;45204;-59
2022/05/04 06:11:43;;;;;;;;;39.75;33.50;;;;;12.30;62.93;100988.81;4938882;28;45796;-60
2022/05/04 06:14:09;;;;;;;;;34.50;31.50;;;;;12.34;62.89;100992.19;4938380;28;45634;-61
2022/05/04 06:16:34;;;;;;;;;38.25;30.75;;;;;12.39;63.58;100988.41;4938921;28;45341;-61
2022/05/04 06:18:59;;;;;;;;;44.25;34.00;;;;;12.55;63.37;101000.97;4947288;28;45536;-60
2022/05/04 06:21:25;;;;;;;;;37.00;32.00;;;;;12.71;62.72;100993.28;4953362;28;45552;-63
2022/05/04 06:23:50;;;;;;;;;38.50;31.50;;;;;12.82;61.96;100996.31;4936852;28;46171;-64
2022/05/04 06:26:20;;;;;;;;;37.75;32.50;;;;;12.86;62.00;101005.81;4939154;28;45511;-63
2022/05/04 06:28:46;;;;;;;;;35.50;31.75;;;;;12.83;61.77;101005.09;4954188;28;45426;-65
2022/05/04 06:34:08;;;;;;;;;38.25;31.50;;;;;12.64;61.97;101012.94;4959818;28;45273;-64
2022/05/04 06:36:34;;;;;;;;;32.00;28.00;;;;;12.61;61.96;101015.72;4957531;28;45290;-72
2022/05/04 06:38:59;;;;;;;;;30.25;30.25;;;;;12.60;61.69;101014.84;4958041;28;45931;-63
2022/05/04 06:41:25;;;;;;;;;40.50;33.50;;;;;12.56;61.86;101014.13;4957774;28;45968;-68
2022/05/04 06:43:50;;;;;;;;;40.50;35.25;;;;;12.52;62.13;101022.22;4956338;28;46226;-68
2022/05/04 06:46:16;;;;;;;;;36.25;33.00;;;;;12.51;62.37;101015.22;4955074;28;45328;-71
2022/05/04 06:48:41;;;;;;;;;38.25;33.25;;;;;12.57;62.09;101014.97;4955448;28;45360;-74
2022/05/04 06:51:08;;;;;;;;;33.50;29.75;;;;;12.56;61.99;101000.94;4956805;28;45441;-71
2022/05/04 06:53:34;;;;;;;;;34.50;29.00;;;;;12.57;61.73;101001.78;4954127;28;46365;-69
2022/05/04 06:56:00;;;;;;;;;49.50;40.00;;;;;12.55;61.59;100993.94;4953265;28;45613;-66
2022/05/04 06:58:25;;;;;;;;;40.75;32.50;;;;;12.66;61.83;101005.81;4951784;28;45508;-65
2022/05/04 07:00:51;;;;;;;;;43.00;31.75;;;;;12.74;61.53;101005.50;4955766;28;45605;-67
2022/05/04 07:03:17;;;;;;;;;34.25;31.25;;;;;12.86;60.68;100999.69;4956676;28;45985;-66
2022/05/04 07:05:43;;;;;;;;;34.50;32.25;;;;;12.95;61.04;100991.38;4957237;28;45475;-69
2022/05/04 07:08:08;;;;;;;;;35.25;32.75;;;;;13.08;60.64;101004.03;4957359;28;45353;-68
2022/05/04 07:10:34;;;;;;;;;27.00;24.00;;;;;13.13;60.61;101007.34;4958454;28;45405;-68
2022/05/04 07:13:00;;;;;;;;;35.25;32.50;;;;;13.29;60.18;101016.28;4956242;28;45362;-68
2022/05/04 07:15:25;;;;;;;;;44.50;32.75;;;;;13.46;60.75;101009.41;4955850;28;45817;-65
2022/05/04 07:17:51;;;;;;;;;39.25;33.50;;;;;13.70;59.62;101014.50;4954961;28;45435;-68
2022/05/04 07:20:16;;;;;;;;;43.50;34.25;;;;;13.85;59.89;101013.81;4957101;28;45355;-69
2022/05/04 07:22:42;;;;;;;;;36.25;33.00;;;;;14.01;59.06;101013.06;4938286;28;47982;-68
2022/05/04 07:25:07;;;;;;;;;40.00;34.25;;;;;14.01;58.73;101021.84;4956036;28;45552;-69
2022/05/04 07:27:33;;;;;;;;;39.75;34.25;;;;;13.85;58.59;101008.53;4956446;28;45306;-71
2022/05/04 07:29:58;;;;;;;;;44.25;36.50;;;;;14.00;58.95;101025.44;4954833;28;45603;-68
2022/05/04 07:32:23;;;;;;;;;35.50;32.00;;;;;14.07;58.79;101041.88;4958451;28;46326;-70
2022/05/04 07:34:49;;;;;;;;;44.50;36.75;;;;;14.16;58.86;101041.44;4957993;28;45262;-69
2022/05/04 07:37:14;;;;;;;;;42.25;33.75;;;;;14.25;58.42;101028.69;4956463;28;45470;-69
2022/05/04 07:42:24;;;;;;;;;45.75;32.00;;;;;14.53;57.74;101032.63;4961317;28;45370;-69
2022/05/04 07:45:01;;;;;;;;;49.25;37.75;;;;;14.59;57.95;101049.06;4957103;28;45460;-68
2022/05/04 07:47:28;;;;;;;;;43.25;36.00;;;;;14.67;57.42;101051.31;4957392;28;45232;-68
2022/05/04 07:49:57;;;;;;;;;46.75;36.75;;;;;14.77;57.13;101053.53;4941404;28;45387;-68
2022/05/04 07:52:23;;;;;;;;;39.50;33.25;;;;;14.78;57.20;101047.31;4956413;28;45468;-68
2022/05/04 07:54:49;;;;;;;;;46.75;39.25;;;;;14.84;57.17;101044.34;4939570;28;45352;-65
2022/05/04 07:57:15;;;;;;;;;46.00;35.25;;;;;14.94;56.91;101050.06;4955990;28;45290;-66
2022/05/04 07:59:41;;;;;;;;;44.00;36.25;;;;;14.66;56.52;100998.47;4956088;28;45556;-67
2022/05/04 08:04:51;;;;;;;;;44.50;36.25;;;;;15.09;56.33;101027.22;4962672;28;45264;-69
2022/05/04 08:07:17;;;;;;;;;47.75;36.00;;;;;15.17;56.06;101041.75;4961595;28;45234;-66
2022/05/04 08:09:42;;;;;;;;;43.00;36.50;;;;;15.27;55.73;101039.50;4956117;28;45547;-68
2022/05/04 08:12:08;;;;;;;;;52.75;40.75;;;;;15.37;56.20;101039.84;4955565;28;45374;-68
2022/05/04 08:14:34;;;;;;;;;50.75;40.25;;;;;15.50;55.89;101036.56;4955696;28;45386;-67
2022/05/04 08:17:01;;;;;;;;;49.50;38.50;;;;;15.55;55.14;101050.44;4956259;28;45349;-68
2022/05/04 08:19:26;;;;;;;;;52.25;39.50;;;;;15.53;55.61;101033.75;4956485;28;45434;-67
2022/05/04 08:21:52;;;;;;;;;45.75;35.25;;;;;15.75;55.06;101054.66;4956551;28;46212;-66
2022/05/04 08:24:18;;;;;;;;;40.75;34.75;;;;;15.73;54.47;101053.88;4958287;28;45421;-66
2022/05/04 08:26:43;;;;;;;;;41.25;31.25;;;;;15.73;54.58;101051.22;4957457;28;45410;-65
2022/05/04 08:29:09;;;;;;;;;50.50;41.00;;;;;15.79;55.29;101050.88;4958868;28;45362;-65
2022/05/04 08:31:34;;;;;;;;;47.50;39.50;;;;;15.89;54.20;101057.44;4959465;28;46304;-65
2022/05/04 08:34:00;;;;;;;;;50.25;38.50;;;;;15.87;54.64;101056.66;4959432;28;45318;-64
2022/05/04 08:36:26;;;;;;;;;49.50;39.50;;;;;15.99;54.39;101049.00;4960723;28;46127;-70
2022/05/04 08:38:52;;;;;;;;;51.25;39.75;;;;;16.01;54.30;101033.84;4942297;28;45561;-68
2022/05/04 08:41:18;;;;;;;;;47.25;38.75;;;;;16.07;54.28;101046.75;4941326;28;47491;-69
2022/05/04 08:43:46;;;;;;;;;45.75;38.75;;;;;16.16;53.92;101048.03;4957551;28;45413;-67
2022/05/04 08:46:15;;;;;;;;;49.50;40.25;;;;;16.33;54.10;101039.94;4941526;28;45388;-64
2022/05/04 08:48:43;;;;;;;;;49.00;40.00;;;;;16.49;53.82;101036.44;4959347;28;45172;-68
2022/05/04 08:51:10;;;;;;;;;52.25;42.00;;;;;16.30;53.32;101016.25;4959152;28;46023;-68
2022/05/04 08:53:37;;;;;;;;;51.25;40.00;;;;;16.47;53.58;101041.00;4958909;28;45389;-69
2022/05/04 08:56:02;;;;;;;;;48.75;39.25;;;;;16.49;53.42;101041.75;4960465;28;45396;-65
2022/05/04 08:58:28;;;;;;;;;50.75;40.25;;;;;16.68;53.20;101054.78;4961647;28;45564;-69
2022/05/04 09:00:53;;;;;;;;;50.75;39.75;;;;;16.84;52.89;101051.25;4958638;28;46299;-66
2022/05/04 09:03:20;;;;;;;;;49.50;40.00;;;;;16.90;52.44;101050.88;4958875;28;47820;-67
2022/05/04 09:05:47;;;;;;;;;47.50;38.50;;;;;16.98;52.60;101048.69;4958413;28;45251;-68
2022/05/04 09:08:12;;;;;;;;;50.25;40.50;;;;;17.19;52.19;101054.47;4958901;28;45441;-67
2022/05/04 09:10:40;;;;;;;;;49.00;39.50;;;;;17.24;51.94;101043.56;4958162;28;45451;-68
2022/05/04 09:13:06;;;;;;;;;47.00;39.25;;;;;17.26;51.43;101052.31;4959274;28;45572;-70
2022/05/04 09:15:33;;;;;;;;;47.00;37.75;;;;;17.15;51.86;101058.28;4960578;28;45321;-71
2022/05/04 09:18:00;;;;;;;;;48.75;38.00;;;;;17.17;51.31;101061.69;4963118;28;45264;-68
2022/05/04 09:23:23;;;;;;;;;45.50;36.25;;;;;17.20;51.59;101065.97;4959307;28;45216;-67
2022/05/04 09:25:53;;;;;;;;;45.50;38.00;;;;;17.17;51.26;101067.00;4959140;28;45253;-68
2022/05/04 09:28:20;;;;;;;;;47.75;37.00;;;;;17.02;51.34;101059.97;4958708;28;45321;-67
2022/05/04 09:30:54;;;;;;;;;38.75;31.50;;;;;16.92;51.54;101057.81;4958307;28;45945;-66
2022/05/04 09:33:27;;;;;;;;;40.50;35.25;;;;;16.74;51.61;101035.84;4958854;28;45287;-68
2022/05/04 09:35:56;;;;;;;;;44.00;35.00;;;;;16.80;51.73;101050.59;4958376;28;45438;-67
2022/05/04 09:46:44;;;;;;;;;43.00;36.75;;;;;16.45;51.54;101027.78;4960055;28;45460;-67
2022/05/04 09:49:21;;;;;;;;;39.25;33.75;;;;;16.46;51.71;101029.50;4960276;28;45208;-69
2022/05/04 09:51:52;;;;;;;;;41.00;33.75;;;;;16.48;51.53;101032.91;4958549;28;45351;-70
2022/05/04 09:54:23;;;;;;;;;44.50;36.25;;;;;16.54;51.41;101031.72;4957964;28;45436;-69
2022/05/04 09:56:52;;;;;;;;;34.75;28.75;;;;;16.60;51.39;101033.16;4959034;28;45983;-69
2022/05/04 09:59:22;;;;;;;;;45.50;35.75;;;;;16.80;50.92;101034.63;4958735;28;45279;-69
2022/05/04 10:01:49;;;;;;;;;40.00;33.75;;;;;16.92;50.62;101041.00;4957744;28;47171;-70
2022/05/04 10:04:15;;;;;;;;;41.75;33.75;;;;;17.02;50.45;101033.38;4939905;28;45291;-69
2022/05/04 10:06:41;;;;;;;;;40.50;33.50;;;;;17.06;49.57;101026.94;4957793;28;45291;-66
2022/05/04 10:09:07;;;;;;;;;36.00;31.75;;;;;17.20;49.54;101036.75;4957742;28;45615;-65
2022/05/04 10:11:34;;;;;;;;;33.25;30.00;;;;;17.22;49.43;101034.84;4957282;28;45488;-65
2022/05/04 10:14:12;;;;;;;;;45.00;36.50;;;;;17.32;49.58;101027.13;4957660;28;45263;-68
2022/05/04 10:16:40;;;;;;;;;43.00;31.25;;;;;17.42;49.41;101038.06;4957482;28;45289;-67
2022/05/04 10:19:12;;;;;;;;;37.00;32.25;;;;;17.37;49.28;101025.91;4957893;28;45471;-67
2022/05/04 10:21:40;;;;;;;;;37.75;31.25;;;;;17.30;49.36;101029.91;4958044;28;45437;-66
2022/05/04 10:24:07;;;;;;;;;45.00;34.75;;;;;17.41;49.46;101034.53;4957371;28;45481;-69
2022/05/04 10:26:35;;;;;;;;;38.75;34.25;;;;;17.53;49.21;101030.28;4959326;28;45346;-66
2022/05/04 10:31:56;;;;;;;;;36.50;31.25;;;;;17.74;48.85;101024.56;4958949;28;45430;-69
2022/05/04 10:34:22;;;;;;;;;39.50;33.25;;;;;17.90;48.16;101027.94;4959601;28;45259;-68
2022/05/04 10:36:52;;;;;;;;;33.00;29.75;;;;;18.06;48.02;101029.69;4959160;28;45336;-69
2022/05/04 10:39:23;;;;;;;;;37.50;31.50;;;;;18.07;47.96;101040.22;4960856;28;45370;-70
2022/05/04 10:41:48;;;;;;;;;37.25;32.25;;;;;18.06;47.41;101035.00;4939525;28;47205;-66
2022/05/04 10:44:16;;;;;;;;;36.50;30.50;;;;;18.08;47.37;101030.44;4956543;28;45424;-66
2022/05/04 10:46:45;;;;;;;;;31.75;30.25;;;;;18.24;47.45;101051.56;4957251;28;45938;-65
2022/05/04 10:49:13;;;;;;;;;31.00;29.00;;;;;18.30;46.56;101045.84;4958370;28;45637;-65
2022/05/04 10:51:40;;;;;;;;;31.25;28.25;;;;;18.30;46.73;101047.66;4960710;28;46251;-65
2022/05/04 10:54:19;;;;;;;;;34.00;29.75;;;;;18.42;46.00;101051.31;4960553;28;45385;-66
2022/05/04 10:56:49;;;;;;;;;34.50;32.25;;;;;18.56;46.61;101040.63;4957018;28;45378;-68
2022/05/04 10:59:27;;;;;;;;;35.50;32.25;;;;;18.76;46.86;101047.25;4939237;28;45589;-67
2022/05/04 11:02:00;;;;;;;;;36.25;32.00;;;;;18.99;46.21;101044.88;4956735;28;46192;-67
2022/05/04 11:04:26;;;;;;;;;32.25;30.00;;;;;19.09;46.15;101045.09;4956634;28;45434;-64
2022/05/04 11:07:05;;;;;;;;;31.25;29.25;;;;;19.21;45.76;101040.75;4955261;28;45343;-68
2022/05/04 11:09:35;;;;;;;;;36.00;30.75;;;;;19.37;45.41;101041.38;4957136;28;45501;-65
2022/05/04 11:12:04;;;;;;;;;32.25;29.50;;;;;19.51;45.80;101034.22;4956057;28;48047;-68
2022/05/04 11:14:30;;;;;;;;;38.00;33.75;;;;;19.58;44.80;101019.47;4958141;28;45484;-70
2022/05/04 11:16:57;;;;;;;;;30.75;26.25;;;;;19.71;44.92;101036.31;4958979;28;45448;-70
2022/05/04 11:19:25;;;;;;;;;29.50;25.00;;;;;19.85;43.80;101023.78;4958438;28;45153;-70
2022/05/04 11:21:51;;;;;;;;;27.25;25.50;;;;;19.91;44.11;101009.16;4956388;28;45465;-69
2022/05/04 11:24:17;;;;;;;;;26.50;23.25;;;;;20.05;43.38;101025.03;4956035;28;45397;-70
2022/05/04 11:26:48;;;;;;;;;21.25;21.25;;;;;19.92;43.29;101025.06;4955362;28;45360;-68
2022/05/04 11:29:17;;;;;;;;;18.25;18.25;;;;;19.90;42.56;101018.97;4956911;28;45402;-70
2022/05/04 11:31:48;;;;;;;;;17.00;15.50;;;;;19.88;41.69;101018.22;4955333;28;46698;-68
2022/05/04 11:34:14;;;;;;;;;13.25;11.00;;;;;19.82;40.52;101018.66;4956011;28;45288;-69
2022/05/04 11:36:43;;;;;;;;;6.00;4.25;;;;;19.78;39.87;101022.50;4957158;28;45504;-68
2022/05/04 11:39:09;;;;;;;;;7.25;6.75;;;;;19.68;39.79;101022.34;4958182;28;45500;-67